Main page
METAR-TAF:

METAR-TAF

Airports :

Avignon – Provence Airport

Avignon, France

latitude: 43-54-26N, longitude: 004-54-07E, elevation: 38 m

Current weather observation

The report was made 25 minutes ago, at 06:00 UTC
Wind 11 kt from the North
Temperature 11°C
Humidity 62%
Pressure 1024 hPa
Visibility 10 km or more
no clouds below 1500 m and no cumulonimbus

METAR: LFMV 230600Z AUTO 35011KT CAVOK 11/04 Q1024 BECMG 35020G34KT

Time: 08:25 (06:25 UTC)

Forecast

The report was made 4 hours and 25 minutes ago, at 02:00 UTC
Forecast valid from 23 at 03 UTC to 24 at 03 UTC
Wind 15 kt from the North/Northwest
Visibility 10 km or more
no clouds below 1500 m and no cumulonimbus
Becoming
from 23 at 05 UTC to 23 at 06 UTC
Wind 20 kt from the North with gusts up to 34 kt

TAF: LFMV 230200Z 2303/2403 34015KT CAVOK BECMG 2305/2306 35020G34KT

Weather observations and forecasts of more than 4000 airports (METAR and TAF reports).

The available stations are represented by yellow and red dots on the map.

Hover mouse over dot to see the name of the station.

Then click to see weather observations and forecasts.

To change the map : click on the green buttons with a black cross to zoom in, on the green button with a dash to zoom out, or on the green arrows for adjacent maps.


METAR-TAF: